createdAt,value
2022-10-19T00:01:03.504Z,73.77
2022-10-19T00:03:31.940Z,74.11
2022-10-19T00:06:00.587Z,73.88
2022-10-19T00:08:28.639Z,73.64
2022-10-19T00:10:57.995Z,73.65
2022-10-19T00:13:25.955Z,74.01
2022-10-19T00:15:53.859Z,74.54
2022-10-19T00:18:30.083Z,74.48
2022-10-19T00:21:04.703Z,74.54
2022-10-19T00:23:32.784Z,74.68
2022-10-19T00:26:02.785Z,74.71
2022-10-19T00:28:31.313Z,74.70
2022-10-19T00:31:04.336Z,74.78
2022-10-19T00:33:32.215Z,74.87
2022-10-19T00:36:00.341Z,74.99
2022-10-19T00:38:28.449Z,75.85
2022-10-19T00:40:56.402Z,75.42
2022-10-19T00:43:27.916Z,75.76
2022-10-19T00:45:55.845Z,76.76
2022-10-19T00:48:26.787Z,76.24
2022-10-19T00:50:56.932Z,76.05
2022-10-19T00:53:28.189Z,76.27
2022-10-19T00:55:58.349Z,76.17
2022-10-19T00:58:28.487Z,76.60
2022-10-19T01:00:56.584Z,76.87
2022-10-19T01:03:24.531Z,77.04
2022-10-19T01:05:52.599Z,76.26
2022-10-19T01:08:21.259Z,76.47
2022-10-19T01:10:55.289Z,76.48
2022-10-19T01:13:43.004Z,76.92
2022-10-19T01:16:18.087Z,77.19
2022-10-19T01:18:51.679Z,77.10
2022-10-19T01:21:28.726Z,77.39
2022-10-19T01:24:30.691Z,77.83
2022-10-19T01:27:36.361Z,78.20
2022-10-19T01:30:12.474Z,77.94
2022-10-19T01:33:05.432Z,77.78
2022-10-19T01:35:39.857Z,78.27
2022-10-19T01:38:22.189Z,78.79
2022-10-19T01:40:58.044Z,78.70
2022-10-19T01:43:38.599Z,79.19
2022-10-19T01:46:14.463Z,79.48
2022-10-19T01:48:51.881Z,80.09
2022-10-19T01:51:24.199Z,80.02
2022-10-19T01:53:55.847Z,80.38
2022-10-19T01:56:27.507Z,80.49
2022-10-19T01:58:57.727Z,80.71
2022-10-19T02:01:31.589Z,80.25
2022-10-19T02:04:01.085Z,79.65
2022-10-19T02:06:29.809Z,79.46
2022-10-19T02:08:58.057Z,78.89
2022-10-19T02:11:26.551Z,78.70
2022-10-19T02:14:01.880Z,78.87
2022-10-19T02:16:36.014Z,78.39
2022-10-19T02:19:08.444Z,78.10
2022-10-19T02:21:36.678Z,77.85
2022-10-19T02:24:04.969Z,77.83
2022-10-19T02:26:33.438Z,77.91
2022-10-19T02:29:01.558Z,78.04
2022-10-19T02:31:29.554Z,77.56
2022-10-19T02:33:58.900Z,77.31
2022-10-19T02:36:26.998Z,77.03
2022-10-19T02:38:55.184Z,77.37
2022-10-19T02:41:28.691Z,77.41
2022-10-19T02:44:02.498Z,77.35
2022-10-19T02:46:37.480Z,77.10
2022-10-19T02:49:09.160Z,76.93
2022-10-19T02:51:38.648Z,76.94
2022-10-19T02:54:07.985Z,76.91
2022-10-19T02:56:36.751Z,76.99
2022-10-19T02:59:05.413Z,76.86
2022-10-19T03:01:33.312Z,77.04
2022-10-19T03:04:01.248Z,76.79
2022-10-19T03:06:30.517Z,76.56
2022-10-19T03:08:58.466Z,76.81
2022-10-19T03:11:27.089Z,76.56
2022-10-19T03:13:55.010Z,76.63
2022-10-19T03:16:22.910Z,76.67
2022-10-19T03:18:51.110Z,76.50
2022-10-19T03:21:20.299Z,76.44
2022-10-19T03:23:49.666Z,76.23
2022-10-19T03:26:18.533Z,76.19
2022-10-19T03:28:46.507Z,76.07
2022-10-19T03:31:14.444Z,76.03
2022-10-19T03:33:42.323Z,75.98
2022-10-19T03:36:18.477Z,75.99
2022-10-19T03:38:46.423Z,76.00
2022-10-19T03:41:15.898Z,76.05
2022-10-19T03:43:43.900Z,75.86
2022-10-19T03:46:11.813Z,75.98
2022-10-19T03:48:39.730Z,75.68
2022-10-19T03:51:10.643Z,76.03
2022-10-19T03:53:39.061Z,75.99
2022-10-19T03:56:09.272Z,75.90
2022-10-19T03:58:40.155Z,75.98
2022-10-19T04:01:10.046Z,76.39
2022-10-19T04:03:38.201Z,76.34
2022-10-19T04:06:08.764Z,76.19
2022-10-19T04:08:37.428Z,76.16
2022-10-19T04:11:10.138Z,76.18
2022-10-19T04:13:39.941Z,76.16
2022-10-19T04:16:08.610Z,76.78
2022-10-19T04:18:36.463Z,76.44
2022-10-19T04:21:06.122Z,76.49
2022-10-19T04:23:36.494Z,76.24
2022-10-19T04:26:06.713Z,76.25
2022-10-19T04:28:35.728Z,76.17
2022-10-19T04:31:06.564Z,76.09
2022-10-19T04:33:35.425Z,76.14
2022-10-19T04:36:06.667Z,76.11
2022-10-19T04:38:35.200Z,76.28
2022-10-19T04:41:04.143Z,76.31
2022-10-19T04:43:32.029Z,75.98
2022-10-19T04:46:05.181Z,76.20
2022-10-19T04:48:33.212Z,75.99
2022-10-19T04:51:01.162Z,76.23
2022-10-19T04:53:29.088Z,76.16
2022-10-19T04:55:57.169Z,76.36
2022-10-19T04:58:25.375Z,76.14
2022-10-19T05:00:53.326Z,76.42
2022-10-19T05:03:22.564Z,76.08
2022-10-19T05:05:50.552Z,76.27
2022-10-19T05:08:18.706Z,76.11
2022-10-19T05:10:47.731Z,76.22
2022-10-19T05:13:15.877Z,76.29
2022-10-19T05:15:43.826Z,76.09
2022-10-19T05:18:11.727Z,75.72
2022-10-19T05:20:41.015Z,76.02
2022-10-19T05:23:08.964Z,76.15
2022-10-19T05:25:36.844Z,76.06
2022-10-19T05:28:04.780Z,75.31
2022-10-19T05:30:33.045Z,75.35
2022-10-19T05:33:01.042Z,75.16
2022-10-19T05:35:28.914Z,75.09
2022-10-19T05:37:58.246Z,74.84
2022-10-19T05:40:26.396Z,74.34
2022-10-19T05:42:54.409Z,74.21
2022-10-19T05:45:22.286Z,73.37
2022-10-19T05:47:50.214Z,73.26
2022-10-19T05:50:18.438Z,73.18
2022-10-19T05:52:46.297Z,73.00
2022-10-19T05:55:15.618Z,72.74
2022-10-19T05:57:43.514Z,72.81
2022-10-19T06:00:12.910Z,72.97
2022-10-19T06:02:40.747Z,73.06
2022-10-19T06:05:09.151Z,72.63
2022-10-19T06:07:37.176Z,72.88
2022-10-19T06:10:05.823Z,73.14
2022-10-19T06:12:35.042Z,72.90
2022-10-19T06:15:02.995Z,73.23
2022-10-19T06:17:30.967Z,73.44
2022-10-19T06:19:58.994Z,73.41
2022-10-19T06:22:26.858Z,73.17
2022-10-19T06:24:55.370Z,73.37
2022-10-19T06:27:23.476Z,73.74
2022-10-19T06:29:52.838Z,73.71
2022-10-19T06:32:20.968Z,73.79
2022-10-19T06:34:50.832Z,73.61
2022-10-19T06:37:20.995Z,73.73
2022-10-19T06:39:48.908Z,73.61
2022-10-19T06:42:16.880Z,73.02
2022-10-19T06:44:45.691Z,72.92
2022-10-19T06:47:15.030Z,72.68
2022-10-19T06:49:43.020Z,73.22
2022-10-19T06:52:10.937Z,72.86
2022-10-19T06:54:38.929Z,72.57
2022-10-19T06:57:08.018Z,72.50
2022-10-19T06:59:35.980Z,72.65
2022-10-19T07:02:06.998Z,72.48
2022-10-19T07:04:36.334Z,72.36
2022-10-19T07:07:04.503Z,71.77
2022-10-19T07:09:32.476Z,71.02
2022-10-19T07:12:00.448Z,69.54
2022-10-19T07:14:28.554Z,70.45
2022-10-19T07:16:56.701Z,70.04
2022-10-19T07:19:27.298Z,69.68
2022-10-19T07:21:56.634Z,69.52
2022-10-19T07:24:24.865Z,69.55
2022-10-19T07:26:52.803Z,69.12
2022-10-19T07:29:20.768Z,68.08
2022-10-19T07:31:48.942Z,67.22
2022-10-19T07:34:17.170Z,67.30
2022-10-19T07:36:48.067Z,66.05
2022-10-19T07:39:18.086Z,65.23
2022-10-19T07:41:46.430Z,62.24
2022-10-19T07:44:16.049Z,60.87
2022-10-19T07:46:44.425Z,61.26
2022-10-19T07:49:18.865Z,60.21
2022-10-19T07:51:47.459Z,60.88
2022-10-19T07:54:16.732Z,59.87
2022-10-19T07:56:45.033Z,61.40
2022-10-19T07:59:14.776Z,61.42
2022-10-19T08:01:43.873Z,60.00
2022-10-19T08:06:59.723Z,60.14
2022-10-19T08:12:17.039Z,58.92
2022-10-19T08:14:44.949Z,59.32
2022-10-19T08:17:16.644Z,57.95
2022-10-19T08:19:44.895Z,59.05
2022-10-19T08:22:13.119Z,60.05
2022-10-19T08:24:42.497Z,59.44
2022-10-19T08:27:10.447Z,59.30
2022-10-19T08:29:38.427Z,58.58
2022-10-19T08:32:06.691Z,57.94
2022-10-19T08:34:34.660Z,58.37
2022-10-19T08:37:10.173Z,57.78
2022-10-19T08:39:49.526Z,56.95
2022-10-19T08:42:20.996Z,57.01
2022-10-19T08:45:22.251Z,57.15
2022-10-19T08:48:02.997Z,57.93
2022-10-19T08:50:38.799Z,55.63
2022-10-19T08:53:11.794Z,55.96
2022-10-19T08:55:58.657Z,56.97
2022-10-19T08:58:50.926Z,56.75
2022-10-19T09:01:33.833Z,55.23
2022-10-19T09:04:11.255Z,55.38
2022-10-19T09:06:49.702Z,54.85
2022-10-19T09:09:20.541Z,58.23
2022-10-19T09:11:52.654Z,55.28
2022-10-19T09:14:26.861Z,53.52
2022-10-19T09:16:59.560Z,53.52
2022-10-19T09:19:31.885Z,53.90
2022-10-19T09:22:04.339Z,53.61
2022-10-19T09:24:41.241Z,53.46
2022-10-19T09:27:19.851Z,54.05
2022-10-19T09:29:55.298Z,53.29
2022-10-19T09:32:26.698Z,53.79
2022-10-19T09:35:01.239Z,52.97
2022-10-19T09:40:03.297Z,54.99
2022-10-19T09:42:36.752Z,54.14
2022-10-19T09:45:17.485Z,54.47
2022-10-19T09:47:49.568Z,53.69
2022-10-19T09:50:21.099Z,55.22
2022-10-19T09:52:50.331Z,54.18
2022-10-19T09:55:27.787Z,54.44
2022-10-19T09:58:17.070Z,54.10
2022-10-19T10:00:46.985Z,54.42
2022-10-19T10:03:27.625Z,54.34
2022-10-19T10:05:57.757Z,53.40
2022-10-19T10:08:35.764Z,54.68
2022-10-19T10:11:11.431Z,54.22
2022-10-19T10:13:43.262Z,54.42
2022-10-19T10:16:15.167Z,54.23
2022-10-19T10:21:48.994Z,54.07
2022-10-19T10:24:21.424Z,55.24
2022-10-19T10:26:51.461Z,53.63
2022-10-19T10:29:23.204Z,53.43
2022-10-19T10:31:54.406Z,53.08
2022-10-19T10:34:50.215Z,53.21
2022-10-19T10:37:23.226Z,52.82
2022-10-19T10:39:53.746Z,52.73
2022-10-19T10:42:28.411Z,52.58
2022-10-19T10:44:58.474Z,53.08
2022-10-19T10:47:27.480Z,52.02
2022-10-19T10:49:59.079Z,53.37
2022-10-19T10:52:31.155Z,52.48
2022-10-19T10:55:02.079Z,53.12
2022-10-19T10:57:34.376Z,51.97
2022-10-19T11:00:11.253Z,51.87
2022-10-19T11:02:48.055Z,51.25
2022-10-19T11:05:20.638Z,50.89
2022-10-19T11:07:54.476Z,51.39
2022-10-19T11:10:27.632Z,50.17
2022-10-19T11:13:06.385Z,51.50
2022-10-19T11:15:40.442Z,51.16
2022-10-19T11:18:19.783Z,50.27
2022-10-19T11:20:52.330Z,49.06
2022-10-19T11:23:28.041Z,47.96
2022-10-19T11:26:07.625Z,46.92
2022-10-19T11:28:53.155Z,46.81
2022-10-19T11:31:33.904Z,47.16
2022-10-19T11:34:11.790Z,47.95
2022-10-19T11:36:51.157Z,45.41
2022-10-19T11:39:28.142Z,35.46
2022-10-19T11:42:15.351Z,33.56
2022-10-19T11:44:59.888Z,27.92
2022-10-19T11:47:50.674Z,27.99
2022-10-19T11:50:32.094Z,28.41
2022-10-19T11:53:10.611Z,35.02
2022-10-19T11:55:45.043Z,38.86
2022-10-19T11:58:34.680Z,40.50
2022-10-19T12:01:13.569Z,40.93
2022-10-19T12:04:02.477Z,42.69
2022-10-19T12:06:36.475Z,43.99
2022-10-19T12:09:27.322Z,45.17
2022-10-19T12:12:07.267Z,46.97
2022-10-19T12:14:42.066Z,46.39
2022-10-19T12:17:19.585Z,48.35
2022-10-19T12:19:52.925Z,48.34
2022-10-19T12:22:25.334Z,47.67
2022-10-19T12:24:56.353Z,47.80
2022-10-19T12:27:30.925Z,47.86
2022-10-19T12:30:04.368Z,47.71
2022-10-19T12:32:40.864Z,48.87
2022-10-19T12:35:24.804Z,47.20
2022-10-19T12:37:58.478Z,46.03
2022-10-19T12:40:33.071Z,46.93
2022-10-19T12:43:04.552Z,47.49
2022-10-19T12:45:40.501Z,47.62
2022-10-19T12:48:20.578Z,47.84
2022-10-19T12:51:15.152Z,47.57
2022-10-19T12:53:47.756Z,48.22
2022-10-19T12:56:24.054Z,48.30
2022-10-19T12:58:59.713Z,48.98
2022-10-19T13:01:29.931Z,49.96
2022-10-19T13:04:10.786Z,49.87
2022-10-19T13:06:44.471Z,50.31
2022-10-19T13:09:25.271Z,50.54
2022-10-19T13:12:29.056Z,51.17
2022-10-19T13:14:59.030Z,51.41
2022-10-19T13:17:43.806Z,52.14
2022-10-19T13:20:52.688Z,52.66
2022-10-19T13:23:42.865Z,52.67
2022-10-19T13:26:33.161Z,52.63
2022-10-19T13:29:01.694Z,53.15
2022-10-19T13:31:31.784Z,53.00
2022-10-19T13:34:00.198Z,53.39
2022-10-19T13:36:28.578Z,53.21
2022-10-19T13:39:17.052Z,53.56
2022-10-19T13:41:54.513Z,53.80
2022-10-19T13:44:33.807Z,54.37
2022-10-19T13:50:16.791Z,54.13
2022-10-19T13:53:08.979Z,54.71
2022-10-19T13:56:02.830Z,54.88
2022-10-19T13:59:07.433Z,54.57
2022-10-19T14:01:49.410Z,54.64
2022-10-19T14:04:35.891Z,54.68
2022-10-19T14:07:11.582Z,55.01
2022-10-19T14:10:01.363Z,55.14
2022-10-19T14:12:34.802Z,55.29
2022-10-19T14:15:15.196Z,55.38
2022-10-19T14:17:43.499Z,55.07
2022-10-19T14:20:27.028Z,55.92
2022-10-19T14:22:55.093Z,55.00
2022-10-19T14:25:24.759Z,55.68
2022-10-19T14:28:02.551Z,55.89
2022-10-19T14:30:32.922Z,55.22
2022-10-19T14:33:14.371Z,55.55
2022-10-19T14:35:44.936Z,55.76
2022-10-19T14:38:21.328Z,56.07
2022-10-19T14:40:49.439Z,56.42
2022-10-19T14:43:27.353Z,56.14
2022-10-19T14:46:15.200Z,56.73
2022-10-19T14:48:45.430Z,57.04
2022-10-19T14:51:29.250Z,56.84
2022-10-19T14:54:02.108Z,57.36
2022-10-19T14:56:34.776Z,57.22
2022-10-19T14:59:08.165Z,57.23
2022-10-19T15:01:36.398Z,57.16
2022-10-19T15:04:05.214Z,57.21
2022-10-19T15:06:35.704Z,57.23
2022-10-19T15:09:12.080Z,57.16
2022-10-19T15:11:49.842Z,57.66
2022-10-19T15:14:23.356Z,57.73
2022-10-19T15:16:54.504Z,57.70
2022-10-19T15:19:29.722Z,58.30
2022-10-19T15:22:18.383Z,58.53
2022-10-19T15:24:58.581Z,58.81
2022-10-19T15:27:32.704Z,59.04
2022-10-19T15:30:05.054Z,59.35
2022-10-19T15:32:36.491Z,59.98
2022-10-19T15:35:12.937Z,60.23
2022-10-19T15:37:44.101Z,59.86
2022-10-19T15:40:14.503Z,60.27
2022-10-19T15:42:44.494Z,60.11
2022-10-19T15:45:33.740Z,60.54
2022-10-19T15:48:28.295Z,60.91
2022-10-19T15:50:57.619Z,61.79
2022-10-19T15:53:28.334Z,62.15
2022-10-19T15:55:56.552Z,62.82
2022-10-19T15:58:25.222Z,63.59
2022-10-19T16:00:54.536Z,63.50
2022-10-19T16:03:23.118Z,64.02
2022-10-19T16:05:51.080Z,64.69
2022-10-19T16:08:19.076Z,64.37
2022-10-19T16:10:47.057Z,65.04
2022-10-19T16:13:14.965Z,65.04
2022-10-19T16:15:49.950Z,65.94
2022-10-19T16:18:26.038Z,66.13
2022-10-19T16:20:54.009Z,66.67
2022-10-19T16:23:22.017Z,67.04
2022-10-19T16:25:49.995Z,67.07
2022-10-19T16:28:18.162Z,66.97
2022-10-19T16:30:46.237Z,67.08
2022-10-19T16:33:14.239Z,67.15
2022-10-19T16:35:43.579Z,67.43
2022-10-19T16:38:11.769Z,67.67
2022-10-19T16:40:39.783Z,68.08
2022-10-19T16:43:08.507Z,68.11
2022-10-19T16:45:36.572Z,68.43
2022-10-19T16:48:04.672Z,68.53
2022-10-19T16:50:32.676Z,68.85
2022-10-19T16:53:07.160Z,69.24
2022-10-19T16:55:35.172Z,69.80
2022-10-19T16:58:03.195Z,69.77
2022-10-19T17:00:31.153Z,69.88
2022-10-19T17:02:59.144Z,70.02
2022-10-19T17:05:27.042Z,70.75
2022-10-19T17:07:55.059Z,70.60
2022-10-19T17:10:24.399Z,71.09
2022-10-19T17:12:52.423Z,71.57
2022-10-19T17:18:08.612Z,71.60
2022-10-19T17:20:36.655Z,71.73
2022-10-19T17:23:04.595Z,72.04
2022-10-19T17:25:34.004Z,71.98
2022-10-19T17:28:01.934Z,72.46
2022-10-19T17:30:29.891Z,72.41
2022-10-19T17:32:57.941Z,71.80
2022-10-19T17:35:25.932Z,72.07
2022-10-19T17:37:53.929Z,71.97
2022-10-19T17:40:21.890Z,72.14
2022-10-19T17:42:51.215Z,72.06
2022-10-19T17:45:19.235Z,72.54
2022-10-19T17:47:47.171Z,72.11
2022-10-19T17:50:15.189Z,72.16
2022-10-19T17:52:43.108Z,72.68
2022-10-19T17:55:13.063Z,72.04
2022-10-19T17:57:41.662Z,72.12
2022-10-19T18:00:11.988Z,72.46
2022-10-19T18:02:45.598Z,72.94
2022-10-19T18:05:13.643Z,72.31
2022-10-19T18:07:44.220Z,72.61
2022-10-19T18:10:12.287Z,72.40
2022-10-19T18:12:40.450Z,72.83
2022-10-19T18:15:09.427Z,72.70
2022-10-19T18:17:39.164Z,73.06
2022-10-19T18:20:08.778Z,73.05
2022-10-19T18:22:36.796Z,72.83
2022-10-19T18:25:05.283Z,72.89
2022-10-19T18:27:33.852Z,72.69
2022-10-19T18:30:06.558Z,72.42
2022-10-19T18:32:39.036Z,72.22
2022-10-19T18:35:08.869Z,71.99
2022-10-19T18:37:36.931Z,72.22
2022-10-19T18:40:05.460Z,71.85
2022-10-19T18:42:33.736Z,71.48
2022-10-19T18:45:03.254Z,71.73
2022-10-19T18:47:32.024Z,71.79
2022-10-19T18:50:01.414Z,72.04
2022-10-19T18:52:29.821Z,71.89
2022-10-19T18:54:57.765Z,72.16
2022-10-19T18:57:30.817Z,72.04
2022-10-19T18:59:59.769Z,72.54
2022-10-19T19:02:34.733Z,71.98
2022-10-19T19:05:04.964Z,72.20
2022-10-19T19:07:33.014Z,72.36
2022-10-19T19:10:00.948Z,72.56
2022-10-19T19:12:31.022Z,72.93
2022-10-19T19:14:59.008Z,73.20
2022-10-19T19:17:27.022Z,73.01
2022-10-19T19:19:55.017Z,72.91
2022-10-19T19:22:26.091Z,73.21
2022-10-19T19:24:54.274Z,73.60
2022-10-19T19:27:27.203Z,73.66
2022-10-19T19:30:00.554Z,73.63
2022-10-19T19:32:28.601Z,73.84
2022-10-19T19:34:56.553Z,74.23
2022-10-19T19:37:25.922Z,74.33
2022-10-19T19:39:53.814Z,74.02
2022-10-19T19:42:25.681Z,74.42
2022-10-19T19:44:55.838Z,74.86
2022-10-19T19:47:23.858Z,74.58
2022-10-19T19:49:51.820Z,74.32
2022-10-19T19:52:19.785Z,74.39
2022-10-19T19:54:49.220Z,74.42
2022-10-19T19:57:17.933Z,74.33
2022-10-19T19:59:45.996Z,74.75
2022-10-19T20:02:17.816Z,74.15
2022-10-19T20:04:45.835Z,74.46
2022-10-19T20:07:13.846Z,74.47
2022-10-19T20:09:41.801Z,74.47
2022-10-19T20:12:13.644Z,74.58
2022-10-19T20:14:41.663Z,74.96
2022-10-19T20:17:09.611Z,74.95
2022-10-19T20:19:37.792Z,75.02
2022-10-19T20:22:06.256Z,75.20
2022-10-19T20:24:37.658Z,75.42
2022-10-19T20:27:05.874Z,75.28
2022-10-19T20:29:35.267Z,75.64
2022-10-19T20:32:03.179Z,75.81
2022-10-19T20:34:31.153Z,75.96
2022-10-19T20:36:59.090Z,75.96
2022-10-19T20:39:27.067Z,75.79
2022-10-19T20:41:55.123Z,75.68
2022-10-19T20:44:23.089Z,76.07
2022-10-19T20:46:52.327Z,75.80
2022-10-19T20:49:20.231Z,75.75
2022-10-19T20:51:48.591Z,76.17
2022-10-19T20:54:16.483Z,76.21
2022-10-19T20:56:44.445Z,76.12
2022-10-19T20:59:14.411Z,75.71
2022-10-19T21:01:43.475Z,75.59
2022-10-19T21:04:15.101Z,75.71
2022-10-19T21:06:44.446Z,75.27
2022-10-19T21:09:14.324Z,75.21
2022-10-19T21:11:43.572Z,75.38
2022-10-19T21:14:14.556Z,74.82
2022-10-19T21:16:42.850Z,74.77
2022-10-19T21:19:15.149Z,74.96
2022-10-19T21:21:45.040Z,74.96
2022-10-19T21:24:15.071Z,75.25
2022-10-19T21:26:43.452Z,75.24
2022-10-19T21:29:12.606Z,75.25
2022-10-19T21:31:45.120Z,75.54
2022-10-19T21:34:19.665Z,75.46
2022-10-19T21:36:47.986Z,75.83
2022-10-19T21:39:16.628Z,75.45
2022-10-19T21:41:44.613Z,75.62
2022-10-19T21:44:12.704Z,76.16
2022-10-19T21:46:40.773Z,76.33
2022-10-19T21:49:08.724Z,76.35
2022-10-19T21:51:42.568Z,76.75
2022-10-19T21:54:13.836Z,76.86
2022-10-19T21:56:41.813Z,77.03
2022-10-19T21:59:09.713Z,76.58
2022-10-19T22:01:40.357Z,77.56
2022-10-19T22:04:13.098Z,77.38
2022-10-19T22:06:43.023Z,77.64
2022-10-19T22:09:14.986Z,78.35
2022-10-19T22:11:43.348Z,78.20
2022-10-19T22:14:12.506Z,78.26
2022-10-19T22:16:41.168Z,78.56
2022-10-19T22:19:10.026Z,78.78
2022-10-19T22:24:14.999Z,78.82
2022-10-19T22:26:50.778Z,78.97
2022-10-19T22:29:18.904Z,78.92
2022-10-19T22:31:46.908Z,79.32
2022-10-19T22:34:17.438Z,79.30
2022-10-19T22:36:45.837Z,79.31
2022-10-19T22:39:15.769Z,78.70
2022-10-19T22:41:43.789Z,79.27
2022-10-19T22:44:11.717Z,79.44
2022-10-19T22:46:39.682Z,79.27
2022-10-19T22:51:37.023Z,79.55
2022-10-19T22:54:05.749Z,79.24
2022-10-19T22:56:35.032Z,79.02
2022-10-19T22:59:04.834Z,78.94
2022-10-19T23:01:33.419Z,78.89
2022-10-19T23:04:01.409Z,78.50
2022-10-19T23:06:29.313Z,78.65
2022-10-19T23:08:57.366Z,78.11
2022-10-19T23:11:25.416Z,77.54
2022-10-19T23:13:54.753Z,77.98
2022-10-19T23:16:22.733Z,77.69
2022-10-19T23:18:50.667Z,77.71
2022-10-19T23:21:18.614Z,77.78
2022-10-19T23:23:46.604Z,78.14
2022-10-19T23:26:17.547Z,78.27
2022-10-19T23:28:47.383Z,78.32
2022-10-19T23:31:18.365Z,78.03
2022-10-19T23:33:46.397Z,78.87
2022-10-19T23:36:16.429Z,78.38
2022-10-19T23:38:45.376Z,78.74
2022-10-19T23:41:14.421Z,79.19
2022-10-19T23:43:43.571Z,79.70
2022-10-19T23:46:11.799Z,79.98
2022-10-19T23:48:41.923Z,80.54
2022-10-19T23:51:13.184Z,80.94
2022-10-19T23:53:42.982Z,80.34
2022-10-19T23:56:12.977Z,80.75
2022-10-19T23:58:40.977Z,81.26
